Time;durP1;ratioP1;P1;durP2;ratioP2;P2;SDS_P1;SDS_P2;PMS_P1;PMS_P2;Temp;Humidity;BMP_temperature;BMP_pressure;BME280_temperature;BME280_humidity;BME280_pressure;Samples;Min_cycle;Max_cycle;Signal;HPM_P1;HPM_P2
2022/02/18 00:01:16;;;;;;;5.97;0.98;;;7.40;90.40;;;;;;5041175;28;20045;-82
2022/02/18 00:03:45;;;;;;;7.53;1.00;;;7.30;90.40;;;;;;5042497;28;20043;-83
2022/02/18 00:06:12;;;;;;;10.35;0.95;;;7.30;90.50;;;;;;5041599;28;20442;-83
2022/02/18 00:08:39;;;;;;;9.38;1.27;;;7.40;90.50;;;;;;5058479;28;20044;-82
2022/02/18 00:11:08;;;;;;;6.10;1.00;;;7.40;90.50;;;;;;5024971;28;20098;-78
2022/02/18 00:13:35;;;;;;;7.15;1.00;;;7.40;90.50;;;;;;5040635;28;20048;-78
2022/02/18 00:16:03;;;;;;;2.88;0.82;;;7.40;90.50;;;;;;5041044;28;20052;-83
2022/02/18 00:18:30;;;;;;;8.23;1.15;;;7.40;90.50;;;;;;5074917;28;20040;-82
2022/02/18 00:20:58;;;;;;;6.10;0.85;;;7.40;90.50;;;;;;5056858;28;20063;-82
2022/02/18 00:23:26;;;;;;;6.57;0.80;;;7.40;90.50;;;;;;5057123;28;20041;-82
2022/02/18 00:25:53;;;;;;;6.72;0.90;;;7.40;90.60;;;;;;5040010;28;20048;-82
2022/02/18 00:28:21;;;;;;;5.40;1.00;;;7.40;90.80;;;;;;5056803;28;20131;-82
2022/02/18 00:30:49;;;;;;;7.13;1.25;;;7.40;90.70;;;;;;5040297;28;20053;-78
2022/02/18 00:33:16;;;;;;;3.95;1.35;;;7.40;90.70;;;;;;5040126;28;20048;-78
2022/02/18 00:35:43;;;;;;;7.07;1.13;;;7.40;90.60;;;;;;5056413;28;20484;-78
2022/02/18 00:38:12;;;;;;;7.63;1.10;;;7.40;90.60;;;;;;5008082;28;20135;-78
2022/02/18 00:40:39;;;;;;;6.97;1.02;;;7.40;90.70;;;;;;5023419;28;20102;-82
2022/02/18 00:43:09;;;;;;;6.88;1.10;;;7.50;90.70;;;;;;5040166;28;20131;-82
2022/02/18 00:45:39;;;;;;;5.28;0.88;;;7.50;90.70;;;;;;5040839;28;20048;-82
2022/02/18 00:48:08;;;;;;;5.88;1.65;;;7.50;90.70;;;;;;5040057;28;20048;-82
2022/02/18 00:50:35;;;;;;;6.95;0.70;;;7.50;90.70;;;;;;5040197;28;20492;-82
2022/02/18 00:53:05;;;;;;;4.88;1.05;;;7.50;90.70;;;;;;5040161;28;20052;-83
2022/02/18 00:55:32;;;;;;;4.90;0.50;;;7.50;90.80;;;;;;5006261;28;20044;-82
2022/02/18 00:57:59;;;;;;;5.65;1.20;;;7.50;90.70;;;;;;5039522;28;20036;-77
2022/02/18 01:00:27;;;;;;;6.53;1.30;;;7.50;90.70;;;;;;5039594;28;20094;-77
2022/02/18 01:02:54;;;;;;;8.00;1.05;;;7.50;90.70;;;;;;5023394;28;20048;-78
2022/02/18 01:05:21;;;;;;;7.40;1.33;;;7.50;90.80;;;;;;5007125;28;20067;-78
2022/02/18 01:07:49;;;;;;;5.90;0.60;;;7.50;90.80;;;;;;5039413;28;20076;-77
2022/02/18 01:10:16;;;;;;;6.43;0.80;;;7.50;90.80;;;;;;5038934;28;20045;-78
2022/02/18 01:12:45;;;;;;;4.43;0.70;;;7.50;90.80;;;;;;5022872;28;20048;-78
2022/02/18 01:15:12;;;;;;;3.40;0.50;;;7.50;90.80;;;;;;5038790;28;20052;-78
2022/02/18 01:17:42;;;;;;;2.55;0.40;;;7.50;90.80;;;;;;5054837;28;20090;-78
2022/02/18 01:20:10;;;;;;;3.72;0.80;;;7.50;90.90;;;;;;5055786;28;20048;-78
2022/02/18 01:22:37;;;;;;;4.78;0.80;;;7.50;90.90;;;;;;5039560;28;20110;-78
2022/02/18 01:25:11;;;;;;;7.70;0.90;;;7.40;90.90;;;;;;5068512;28;20077;-77
2022/02/18 01:27:40;;;;;;;3.50;0.70;;;7.40;90.90;;;;;;5075040;28;20047;-77
2022/02/18 01:30:09;;;;;;;5.85;1.00;;;7.40;90.90;;;;;;5059224;28;20753;-77
2022/02/18 01:32:37;;;;;;;5.18;0.70;;;7.40;90.90;;;;;;5069101;28;20512;-77
2022/02/18 01:35:05;;;;;;;5.55;1.17;;;7.40;91.00;;;;;;5058549;28;20046;-77
2022/02/18 01:37:32;;;;;;;7.78;1.38;;;7.40;90.90;;;;;;5057534;28;20052;-82
2022/02/18 01:40:00;;;;;;;6.43;1.00;;;7.40;91.00;;;;;;5042128;28;20459;-82
2022/02/18 01:42:27;;;;;;;8.43;1.10;;;7.40;91.00;;;;;;5042802;28;20488;-82
2022/02/18 01:44:54;;;;;;;3.50;0.70;;;7.40;91.00;;;;;;5042617;28;20040;-83
2022/02/18 01:47:23;;;;;;;3.22;0.60;;;7.50;91.00;;;;;;5042569;28;20048;-82
2022/02/18 01:49:58;;;;;;;7.20;0.82;;;7.50;91.00;;;;;;5058916;28;20071;-82
2022/02/18 01:52:28;;;;;;;3.75;0.75;;;7.50;91.00;;;;;;5043459;28;20046;-83
2022/02/18 01:54:55;;;;;;;4.18;0.60;;;7.50;91.00;;;;;;5093346;28;20037;-82
2022/02/18 01:57:24;;;;;;;3.10;0.60;;;7.50;91.00;;;;;;5075563;28;20062;-82
2022/02/18 01:59:52;;;;;;;3.55;0.55;;;7.50;91.00;;;;;;5058968;28;20135;-82
2022/02/18 02:02:19;;;;;;;1.25;0.28;;;7.50;91.00;;;;;;5075137;28;20036;-83
2022/02/18 02:04:46;;;;;;;3.53;0.47;;;7.50;91.00;;;;;;5075457;28;20111;-82
2022/02/18 02:07:21;;;;;;;3.92;0.60;;;7.50;91.00;;;;;;5074678;28;20047;-78
2022/02/18 02:09:49;;;;;;;4.35;0.80;;;7.50;91.00;;;;;;5059090;28;20123;-77
2022/02/18 02:12:16;;;;;;;3.25;0.47;;;7.50;91.00;;;;;;5058591;28;20055;-77
2022/02/18 02:14:48;;;;;;;4.30;0.73;;;7.50;91.00;;;;;;5059106;28;20056;-77
2022/02/18 02:17:17;;;;;;;4.43;0.73;;;7.60;91.00;;;;;;5058350;28;20043;-78
2022/02/18 02:19:45;;;;;;;2.15;0.40;;;7.60;91.00;;;;;;5058221;28;20040;-82
2022/02/18 02:22:16;;;;;;;1.95;0.28;;;7.60;91.00;;;;;;5058194;28;20044;-82
2022/02/18 02:24:44;;;;;;;4.68;0.60;;;7.60;91.00;;;;;;5074487;28;20408;-78
2022/02/18 02:27:21;;;;;;;3.30;0.20;;;7.60;91.00;;;;;;5058765;28;20074;-78
2022/02/18 02:29:51;;;;;;;2.03;0.35;;;7.60;91.00;;;;;;5057874;28;20048;-78
2022/02/18 02:32:19;;;;;;;2.95;0.57;;;7.60;91.00;;;;;;5074385;28;20561;-82
2022/02/18 02:34:47;;;;;;;1.42;0.20;;;7.60;91.00;;;;;;5058181;28;20121;-83
2022/02/18 02:37:15;;;;;;;1.73;0.20;;;7.60;91.00;;;;;;5057962;28;20044;-82
2022/02/18 02:39:42;;;;;;;4.82;0.20;;;7.60;91.00;;;;;;5057871;28;20056;-82
2022/02/18 02:42:10;;;;;;;0.55;0.10;;;7.60;91.00;;;;;;5041470;28;20066;-83
2022/02/18 02:44:39;;;;;;;1.50;0.45;;;7.70;91.00;;;;;;5058187;28;20048;-82
2022/02/18 02:47:13;;;;;;;0.90;0.47;;;7.60;91.00;;;;;;5075793;28;20048;-82
2022/02/18 02:49:41;;;;;;;2.60;0.40;;;7.70;91.00;;;;;;5041615;28;20507;-83
2022/02/18 02:52:08;;;;;;;3.90;0.30;;;7.70;91.00;;;;;;5074843;28;20052;-82
2022/02/18 02:54:37;;;;;;;3.42;0.30;;;7.70;91.00;;;;;;5074109;28;20064;-83
2022/02/18 02:57:10;;;;;;;3.85;0.73;;;7.70;91.00;;;;;;5058431;28;20454;-82
2022/02/18 02:59:51;;;;;;;4.00;0.60;;;7.70;91.00;;;;;;5059448;28;20071;-83
2022/02/18 03:02:21;;;;;;;3.65;0.50;;;7.70;91.00;;;;;;5057672;28;20048;-82
2022/02/18 03:04:50;;;;;;;3.50;0.35;;;7.70;90.90;;;;;;5025549;28;20126;-82
2022/02/18 03:07:21;;;;;;;1.60;0.47;;;7.70;90.90;;;;;;5041799;28;20067;-82
2022/02/18 03:10:16;;;;;;;2.42;0.82;;;7.70;90.90;;;;;;5052203;28;20131;-82
2022/02/18 03:12:45;;;;;;;1.15;0.30;;;7.70;90.90;;;;;;5042002;28;20044;-82
2022/02/18 03:15:14;;;;;;;2.28;0.40;;;7.70;90.90;;;;;;5092459;28;20211;-83
2022/02/18 03:17:44;;;;;;;4.47;2.15;;;7.70;91.00;;;;;;5057650;28;20080;-82
2022/02/18 03:20:29;;;;;;;2.35;0.32;;;7.70;91.00;;;;;;5062850;28;20051;-82
2022/02/18 03:22:56;;;;;;;4.63;0.57;;;7.70;91.00;;;;;;5045611;28;20042;-78
2022/02/18 03:25:23;;;;;;;3.47;0.75;;;7.70;91.00;;;;;;5045886;28;20049;-82
2022/02/18 03:27:52;;;;;;;1.83;0.25;;;7.70;91.00;;;;;;5026001;28;20135;-82
2022/02/18 03:30:24;;;;;;;2.30;0.35;;;7.70;91.00;;;;;;5027276;28;20138;-82
2022/02/18 03:32:54;;;;;;;4.68;0.60;;;7.70;91.00;;;;;;5042344;28;20078;-82
2022/02/18 03:35:23;;;;;;;3.28;0.30;;;7.70;91.00;;;;;;5025827;28;20139;-82
2022/02/18 03:37:52;;;;;;;2.28;0.50;;;7.70;91.00;;;;;;5041506;28;20049;-82
2022/02/18 03:40:33;;;;;;;1.75;0.30;;;7.70;91.00;;;;;;5057753;28;20123;-82
2022/02/18 03:43:00;;;;;;;2.58;0.63;;;7.70;91.00;;;;;;5041148;28;20051;-82
2022/02/18 03:45:35;;;;;;;1.73;0.40;;;7.70;91.00;;;;;;5026582;28;20045;-82
2022/02/18 03:48:08;;;;;;;3.28;0.50;;;7.70;91.00;;;;;;5041861;28;20110;-82
2022/02/18 03:50:42;;;;;;;2.60;0.40;;;7.70;91.10;;;;;;5041629;28;20059;-78
2022/02/18 03:53:10;;;;;;;6.03;0.85;;;7.70;91.10;;;;;;5041526;28;20548;-78
2022/02/18 03:55:49;;;;;;;4.93;0.60;;;7.80;91.10;;;;;;5028171;28;20481;-77
2022/02/18 03:58:17;;;;;;;2.65;0.50;;;7.80;91.10;;;;;;5008564;28;20040;-78
2022/02/18 04:00:46;;;;;;;4.18;0.40;;;7.80;91.00;;;;;;5040906;28;20155;-78
2022/02/18 04:03:13;;;;;;;2.58;0.52;;;7.80;91.10;;;;;;5040321;28;20040;-78
2022/02/18 04:06:03;;;;;;;1.80;0.30;;;7.80;91.10;;;;;;5014461;28;20048;-77
2022/02/18 04:08:37;;;;;;;2.85;0.40;;;7.80;91.10;;;;;;5041708;28;20101;-78
2022/02/18 04:11:04;;;;;;;1.38;0.30;;;7.80;91.10;;;;;;5024455;28;20459;-78
2022/02/18 04:13:33;;;;;;;2.20;0.50;;;7.80;91.10;;;;;;5041251;28;20045;-78
2022/02/18 04:16:00;;;;;;;0.65;0.20;;;7.80;91.10;;;;;;5008617;28;20106;-78
2022/02/18 04:18:27;;;;;;;2.33;0.50;;;7.80;91.20;;;;;;5040621;28;20134;-78
2022/02/18 04:20:58;;;;;;;1.08;0.20;;;7.80;91.20;;;;;;5025012;28;20074;-77
2022/02/18 04:23:50;;;;;;;2.65;0.20;;;7.80;91.20;;;;;;5046897;28;20067;-78
2022/02/18 04:26:18;;;;;;;1.05;0.35;;;7.80;91.20;;;;;;5040634;28;20142;-77
2022/02/18 04:28:46;;;;;;;8.38;0.40;;;7.80;91.30;;;;;;5057049;28;20040;-77
2022/02/18 04:31:13;;;;;;;0.63;0.10;;;7.80;91.30;;;;;;5024168;28;20136;-78
2022/02/18 04:33:43;;;;;;;0.80;0.30;;;7.70;91.30;;;;;;5040528;28;20477;-77
2022/02/18 04:36:11;;;;;;;1.23;0.15;;;7.80;91.30;;;;;;5056674;28;20044;-77
2022/02/18 04:38:39;;;;;;;1.40;0.10;;;7.80;91.40;;;;;;5024470;28;20056;-78
2022/02/18 04:41:07;;;;;;;0.70;0.10;;;7.80;91.40;;;;;;5056001;28;20411;-76
2022/02/18 04:43:35;;;;;;;1.38;0.25;;;7.80;91.40;;;;;;5040169;28;20488;-76
2022/02/18 04:46:03;;;;;;;1.08;0.40;;;7.80;91.40;;;;;;5039482;28;20072;-77
2022/02/18 04:48:29;;;;;;;0.77;0.10;;;7.80;91.40;;;;;;5055835;28;20052;-77
2022/02/18 04:50:56;;;;;;;1.75;0.20;;;7.80;91.40;;;;;;5039525;28;20044;-77
2022/02/18 04:53:36;;;;;;;1.45;0.20;;;7.80;91.40;;;;;;5028086;28;20051;-78
2022/02/18 04:56:09;;;;;;;1.13;0.20;;;7.80;91.40;;;;;;5039600;28;20044;-78
2022/02/18 04:58:37;;;;;;;1.48;0.20;;;7.80;91.40;;;;;;5055776;28;20045;-78
2022/02/18 05:01:06;;;;;;;6.55;0.32;;;7.80;91.40;;;;;;5073255;28;20462;-78
2022/02/18 05:03:33;;;;;;;4.35;0.38;;;7.80;91.40;;;;;;5074182;28;20045;-78
2022/02/18 05:06:02;;;;;;;3.25;0.30;;;7.80;91.40;;;;;;5039244;28;20497;-78
2022/02/18 05:08:31;;;;;;;1.92;0.20;;;7.80;91.40;;;;;;5040038;28;20041;-78
2022/02/18 05:10:58;;;;;;;1.23;0.20;;;7.80;91.40;;;;;;5039340;28;20051;-78
2022/02/18 05:13:25;;;;;;;0.70;0.10;;;7.80;91.40;;;;;;5023387;28;20499;-77
2022/02/18 05:15:52;;;;;;;5.15;0.43;;;7.80;91.50;;;;;;5006837;28;20049;-77
2022/02/18 05:18:19;;;;;;;1.50;0.20;;;7.80;91.50;;;;;;5055870;28;20056;-78
2022/02/18 05:20:47;;;;;;;3.80;0.30;;;7.80;91.50;;;;;;5023505;28;20130;-78
2022/02/18 05:23:15;;;;;;;1.20;0.40;;;7.80;91.50;;;;;;5006718;28;20048;-78
2022/02/18 05:25:42;;;;;;;1.70;0.22;;;7.80;91.50;;;;;;5040074;28;20040;-78
2022/02/18 05:28:09;;;;;;;1.48;0.30;;;7.80;91.60;;;;;;5093067;28;20047;-79
2022/02/18 05:30:36;;;;;;;1.83;0.25;;;7.80;91.60;;;;;;5058783;28;20146;-79
2022/02/18 05:33:04;;;;;;;0.93;0.10;;;7.80;91.60;;;;;;5043137;28;20051;-77
2022/02/18 05:35:31;;;;;;;2.20;0.28;;;7.80;91.60;;;;;;5074959;28;20044;-77
2022/02/18 05:37:58;;;;;;;1.58;0.20;;;7.80;91.60;;;;;;5041699;28;20044;-77
2022/02/18 05:40:25;;;;;;;0.82;0.25;;;7.80;91.60;;;;;;5041063;28;20040;-78
2022/02/18 05:42:52;;;;;;;2.47;0.32;;;7.80;91.60;;;;;;5076970;28;20106;-81
2022/02/18 05:45:22;;;;;;;1.20;0.30;;;7.90;91.60;;;;;;5051500;28;20043;-81
2022/02/18 05:47:51;;;;;;;4.72;0.60;;;7.90;91.60;;;;;;5075513;28;20040;-81
2022/02/18 05:50:19;;;;;;;1.23;0.40;;;7.90;91.70;;;;;;5038558;28;20496;-82
2022/02/18 05:52:47;;;;;;;2.60;0.50;;;7.90;91.70;;;;;;5059738;28;20077;-82
2022/02/18 05:55:16;;;;;;;1.42;0.25;;;7.90;91.60;;;;;;5039261;28;20113;-78
2022/02/18 05:57:44;;;;;;;1.98;0.35;;;7.90;91.60;;;;;;5038620;28;20053;-79
2022/02/18 06:00:11;;;;;;;2.63;0.30;;;7.90;91.70;;;;;;5021360;28;20036;-78
2022/02/18 06:02:40;;;;;;;2.38;0.43;;;7.90;91.70;;;;;;5054685;28;20052;-78
2022/02/18 06:05:07;;;;;;;1.90;0.20;;;7.90;91.70;;;;;;5037459;28;20112;-79
2022/02/18 06:07:35;;;;;;;2.55;0.40;;;7.90;91.70;;;;;;5021990;28;20056;-78
2022/02/18 06:10:03;;;;;;;2.75;0.30;;;8.00;91.70;;;;;;5037844;28;20067;-78
2022/02/18 06:12:30;;;;;;;2.05;0.30;;;7.90;91.70;;;;;;5021869;28;20048;-78
2022/02/18 06:14:57;;;;;;;5.22;0.60;;;7.90;91.70;;;;;;5059926;28;20048;-78
2022/02/18 06:17:24;;;;;;;2.67;0.30;;;8.00;91.70;;;;;;5041126;28;20036;-78
2022/02/18 06:19:51;;;;;;;3.90;0.30;;;8.00;91.70;;;;;;5040781;28;20056;-79
2022/02/18 06:22:22;;;;;;;4.32;0.40;;;8.00;91.70;;;;;;5054283;28;20063;-78
2022/02/18 06:24:50;;;;;;;1.35;0.38;;;8.00;91.80;;;;;;5037125;28;20067;-77
2022/02/18 06:27:18;;;;;;;2.35;0.40;;;8.00;91.80;;;;;;5037398;28;20044;-78
2022/02/18 06:29:49;;;;;;;3.53;0.30;;;8.00;91.80;;;;;;5020756;28;20056;-78
2022/02/18 06:32:16;;;;;;;1.83;0.30;;;8.00;91.80;;;;;;5038104;28;20063;-78
2022/02/18 06:34:43;;;;;;;3.03;0.57;;;8.00;91.80;;;;;;5020968;28;20050;-78
2022/02/18 06:37:10;;;;;;;3.67;0.70;;;8.00;91.80;;;;;;5053264;28;20048;-76
2022/02/18 06:39:37;;;;;;;4.32;0.52;;;8.00;91.80;;;;;;5020397;28;20040;-78
2022/02/18 06:42:05;;;;;;;2.63;0.77;;;8.00;91.80;;;;;;5053920;28;20078;-78
2022/02/18 06:44:33;;;;;;;4.38;0.77;;;8.00;91.80;;;;;;5036885;28;20040;-77
2022/02/18 06:47:00;;;;;;;7.97;0.85;;;8.00;91.90;;;;;;5037167;28;20105;-77
2022/02/18 06:49:27;;;;;;;3.63;0.30;;;7.90;91.90;;;;;;5054182;28;20051;-78
2022/02/18 06:51:57;;;;;;;3.17;0.40;;;7.90;91.90;;;;;;5037225;28;20040;-78
2022/02/18 06:54:25;;;;;;;3.00;0.52;;;7.90;92.00;;;;;;5053057;28;20041;-76
2022/02/18 06:56:56;;;;;;;8.88;0.63;;;7.90;92.00;;;;;;5037460;28;20572;-77
2022/02/18 06:59:24;;;;;;;3.47;0.60;;;7.90;92.10;;;;;;5053885;28;20489;-77
2022/02/18 07:01:54;;;;;;;6.88;0.80;;;7.90;92.10;;;;;;5037565;28;20058;-77
2022/02/18 07:04:24;;;;;;;4.70;0.70;;;7.90;92.10;;;;;;5038975;28;20488;-78
2022/02/18 07:06:52;;;;;;;3.25;1.00;;;7.90;92.10;;;;;;5037446;28;20070;-78
2022/02/18 07:09:19;;;;;;;2.33;0.32;;;7.90;92.10;;;;;;5021260;28;20041;-78
2022/02/18 07:11:47;;;;;;;2.90;0.60;;;7.90;92.20;;;;;;5036624;28;20102;-79
2022/02/18 07:14:17;;;;;;;3.92;0.30;;;7.90;92.20;;;;;;5053661;28;20044;-78
2022/02/18 07:16:44;;;;;;;5.07;0.77;;;7.90;92.30;;;;;;5077714;28;20080;-77
2022/02/18 07:19:13;;;;;;;4.22;0.45;;;7.90;92.40;;;;;;5052475;28;20032;-76
2022/02/18 07:21:41;;;;;;;3.72;0.40;;;7.90;92.40;;;;;;5082528;28;20621;-81
2022/02/18 07:24:10;;;;;;;2.78;0.63;;;7.80;92.40;;;;;;5033977;28;20061;-82
2022/02/18 07:26:37;;;;;;;2.65;0.85;;;7.80;92.40;;;;;;5035392;28;20490;-81
2022/02/18 07:29:04;;;;;;;6.03;1.35;;;7.90;92.50;;;;;;5018739;28;20071;-82
2022/02/18 07:31:32;;;;;;;4.65;0.95;;;7.90;92.60;;;;;;5034418;28;20045;-82
2022/02/18 07:33:59;;;;;;;1.60;0.30;;;7.90;92.60;;;;;;5034467;28;20135;-82
2022/02/18 07:36:26;;;;;;;1.98;0.40;;;7.90;92.60;;;;;;5017487;28;20136;-79
2022/02/18 07:38:53;;;;;;;5.32;0.75;;;7.90;92.60;;;;;;5033330;28;20061;-78
2022/02/18 07:41:20;;;;;;;4.03;0.80;;;7.90;92.60;;;;;;5002014;28;20049;-78
2022/02/18 07:43:47;;;;;;;6.63;0.65;;;8.00;92.70;;;;;;5023723;28;20033;-78
2022/02/18 07:46:17;;;;;;;4.28;0.60;;;8.00;92.70;;;;;;5019306;28;20102;-78
2022/02/18 07:48:44;;;;;;;5.97;0.80;;;8.00;92.70;;;;;;5017422;28;20088;-77
2022/02/18 07:51:11;;;;;;;4.57;0.93;;;8.00;92.80;;;;;;5033506;28;20048;-77
2022/02/18 07:53:39;;;;;;;7.18;0.98;;;8.00;92.80;;;;;;5017307;28;20045;-77
2022/02/18 07:56:07;;;;;;;6.50;1.48;;;8.10;93.00;;;;;;5018104;28;20037;-80
2022/02/18 07:58:34;;;;;;;6.75;1.00;;;8.10;93.00;;;;;;5018030;28;20037;-81
2022/02/18 08:01:01;;;;;;;6.50;1.02;;;8.10;93.00;;;;;;4986074;28;20037;-81
2022/02/18 08:03:29;;;;;;;7.90;1.20;;;8.20;93.00;;;;;;5019137;28;20045;-81
2022/02/18 08:05:58;;;;;;;8.50;1.17;;;8.20;93.00;;;;;;5020817;28;20041;-81
2022/02/18 08:08:27;;;;;;;5.80;1.25;;;8.20;93.20;;;;;;5007138;28;20079;-80
2022/02/18 08:10:54;;;;;;;6.93;0.90;;;8.30;93.20;;;;;;5030161;28;20049;-80
2022/02/18 08:13:22;;;;;;;9.52;2.60;;;8.30;93.20;;;;;;5030270;28;20045;-92
2022/02/18 08:15:48;;;;;;;11.07;2.05;;;8.30;93.40;;;;;;5024170;28;20056;-86
2022/02/18 08:18:20;;;;;;;8.52;1.65;;;8.40;93.50;;;;;;5023304;28;20052;-87
2022/02/18 08:20:50;;;;;;;7.82;1.38;;;8.40;93.70;;;;;;5007305;28;20081;-86
2022/02/18 08:23:17;;;;;;;8.18;1.73;;;8.40;93.40;;;;;;5023882;28;20088;-85
2022/02/18 08:25:45;;;;;;;6.47;1.85;;;8.40;93.40;;;;;;5009505;28;20084;-87
2022/02/18 08:28:13;;;;;;;9.88;1.52;;;8.50;93.60;;;;;;5021928;28;20053;-83
2022/02/18 08:30:41;;;;;;;4.50;0.90;;;8.50;93.50;;;;;;5021528;28;20090;-83
2022/02/18 08:33:11;;;;;;;5.07;1.05;;;8.50;93.60;;;;;;5005294;28;20060;-83
2022/02/18 08:35:39;;;;;;;4.95;1.38;;;8.50;93.50;;;;;;5021425;28;20044;-85
2022/02/18 08:38:07;;;;;;;7.20;1.15;;;8.50;93.50;;;;;;5020930;28;20430;-85
2022/02/18 08:40:37;;;;;;;8.75;1.58;;;8.50;93.50;;;;;;5021174;28;20497;-86
2022/02/18 08:43:05;;;;;;;4.25;0.90;;;8.60;93.60;;;;;;5008169;28;20040;-81
2022/02/18 08:45:33;;;;;;;6.28;1.10;;;8.50;93.60;;;;;;5016870;28;20049;-80
2022/02/18 08:48:00;;;;;;;9.05;1.85;;;8.50;93.70;;;;;;5030999;28;20548;-78
2022/02/18 08:50:31;;;;;;;7.30;0.95;;;8.50;93.70;;;;;;5031308;28;20052;-79
2022/02/18 08:52:58;;;;;;;6.75;1.60;;;8.60;93.80;;;;;;5030817;28;20106;-79
2022/02/18 08:55:25;;;;;;;5.63;0.88;;;8.60;93.90;;;;;;5022699;28;20047;-80
2022/02/18 08:57:52;;;;;;;6.40;1.30;;;8.60;93.90;;;;;;5020884;28;20071;-80
2022/02/18 09:00:19;;;;;;;9.13;1.98;;;8.70;93.90;;;;;;5004677;28;20045;-81
2022/02/18 09:02:46;;;;;;;5.70;1.15;;;8.70;94.00;;;;;;5020457;28;20033;-80
2022/02/18 09:05:14;;;;;;;4.63;1.35;;;8.70;94.00;;;;;;5020701;28;20049;-80
2022/02/18 09:07:44;;;;;;;7.35;1.58;;;8.70;94.00;;;;;;5036769;28;20041;-82
2022/02/18 09:10:12;;;;;;;8.65;1.73;;;8.70;94.10;;;;;;5021359;28;20126;-80
2022/02/18 09:12:40;;;;;;;4.57;1.38;;;8.80;94.10;;;;;;5020682;28;20049;-80
2022/02/18 09:15:08;;;;;;;4.28;1.08;;;8.80;94.10;;;;;;5035629;28;20063;-81
2022/02/18 09:17:59;;;;;;;6.65;2.05;;;8.80;94.10;;;;;;5044054;28;20065;-81
2022/02/18 09:20:27;;;;;;;7.75;1.13;;;8.90;94.10;;;;;;5024713;28;20045;-81
2022/02/18 09:22:54;;;;;;;5.57;1.10;;;8.90;94.10;;;;;;5004888;28;20456;-81
2022/02/18 09:25:21;;;;;;;6.82;1.38;;;8.90;94.20;;;;;;5012269;28;20060;-87
2022/02/18 09:27:51;;;;;;;3.47;1.38;;;9.00;94.30;;;;;;5021298;28;20045;-87
2022/02/18 09:30:19;;;;;;;6.05;1.50;;;9.10;94.40;;;;;;5037335;28;20083;-87
2022/02/18 09:33:06;;;;;;;3.70;1.05;;;9.20;94.70;;;;;;5024036;28;20049;-87
2022/02/18 09:35:33;;;;;;;6.18;1.45;;;9.20;94.60;;;;;;5004859;28;20472;-87
2022/02/18 09:38:01;;;;;;;8.32;1.73;;;9.30;94.70;;;;;;4989298;28;20136;-86
2022/02/18 09:40:28;;;;;;;4.60;1.15;;;9.30;94.80;;;;;;5021310;28;20481;-86
2022/02/18 09:42:58;;;;;;;3.60;1.63;;;9.40;94.70;;;;;;5020141;28;20053;-86
2022/02/18 09:45:26;;;;;;;5.22;1.08;;;9.40;94.70;;;;;;5019720;28;20055;-84
2022/02/18 09:47:53;;;;;;;1.80;0.73;;;9.50;94.80;;;;;;5020998;28;20041;-83
2022/02/18 09:50:20;;;;;;;3.10;1.00;;;9.50;94.70;;;;;;5036576;28;20063;-83
2022/02/18 09:53:08;;;;;;;3.35;1.23;;;9.60;94.70;;;;;;5009004;28;20056;-83
2022/02/18 09:55:39;;;;;;;4.35;1.23;;;9.60;94.70;;;;;;5019883;28;20044;-85
2022/02/18 09:58:07;;;;;;;3.95;1.60;;;9.60;94.90;;;;;;5035505;28;20110;-84
2022/02/18 10:00:36;;;;;;;3.03;1.20;;;9.70;94.80;;;;;;5019337;28;20077;-84
2022/02/18 10:03:06;;;;;;;2.38;1.20;;;9.70;94.80;;;;;;5003457;28;20139;-86
2022/02/18 10:05:34;;;;;;;4.15;1.10;;;9.70;95.00;;;;;;5036013;28;20049;-86
2022/02/18 10:08:22;;;;;;;3.38;1.23;;;9.80;95.00;;;;;;5020061;28;20045;-84
2022/02/18 10:11:04;;;;;;;3.22;1.60;;;9.90;95.10;;;;;;5020461;28;20585;-84
2022/02/18 10:13:42;;;;;;;3.35;1.20;;;9.90;95.10;;;;;;5052433;28;20051;-84
2022/02/18 10:16:12;;;;;;;2.85;1.40;;;10.00;95.10;;;;;;5035968;28;20048;-84
2022/02/18 10:18:49;;;;;;;2.50;1.00;;;10.00;95.20;;;;;;5035916;28;20401;-85
2022/02/18 10:21:25;;;;;;;1.88;1.17;;;10.10;95.10;;;;;;5035976;28;20045;-85
2022/02/18 10:24:07;;;;;;;1.92;1.30;;;10.10;95.10;;;;;;5021616;28;20059;-86
2022/02/18 10:26:40;;;;;;;1.73;1.10;;;10.20;95.30;;;;;;5037793;28;20059;-86
2022/02/18 10:29:16;;;;;;;2.40;1.10;;;10.30;95.40;;;;;;5036777;28;20488;-84
2022/02/18 10:31:43;;;;;;;3.08;1.42;;;10.30;95.40;;;;;;5049990;28;20111;-84
2022/02/18 10:34:11;;;;;;;3.17;1.15;;;10.30;95.40;;;;;;5018858;28;20041;-83
2022/02/18 10:36:44;;;;;;;2.42;1.17;;;10.40;95.50;;;;;;5035261;28;20114;-84
2022/02/18 10:39:33;;;;;;;3.35;1.70;;;10.40;95.60;;;;;;5052094;28;20127;-83
2022/02/18 10:42:02;;;;;;;2.47;1.38;;;10.50;95.60;;;;;;5049857;28;20408;-76
2022/02/18 10:44:33;;;;;;;1.95;1.30;;;10.50;95.70;;;;;;5051277;28;20068;-76
2022/02/18 10:47:05;;;;;;;2.70;1.07;;;10.50;95.60;;;;;;5033605;28;20128;-76
2022/02/18 10:49:43;;;;;;;2.78;1.20;;;10.60;95.70;;;;;;5033882;28;20365;-76
2022/02/18 10:52:12;;;;;;;2.60;1.08;;;10.60;95.70;;;;;;5033855;28;20037;-76
2022/02/18 10:54:39;;;;;;;3.67;1.00;;;10.60;95.90;;;;;;5032132;28;20037;-76
2022/02/18 10:57:16;;;;;;;2.50;1.17;;;10.70;95.70;;;;;;5015574;28;20059;-76
2022/02/18 10:59:44;;;;;;;2.42;1.10;;;10.70;95.70;;;;;;5032755;28;20210;-82
2022/02/18 11:02:11;;;;;;;2.00;0.77;;;10.70;95.70;;;;;;5034334;28;20049;-83
2022/02/18 11:04:38;;;;;;;2.03;0.80;;;10.80;95.70;;;;;;5016706;28;20056;-76
2022/02/18 11:07:09;;;;;;;1.65;0.77;;;10.80;95.70;;;;;;5050645;28;20412;-76
2022/02/18 11:09:36;;;;;;;1.75;0.75;;;10.80;95.70;;;;;;5051427;28;20041;-76
2022/02/18 11:12:09;;;;;;;4.03;0.90;;;10.90;95.70;;;;;;5017659;28;20072;-76
2022/02/18 11:14:39;;;;;;;1.08;0.60;;;10.90;95.70;;;;;;5033000;28;20143;-76
2022/02/18 11:17:07;;;;;;;3.92;0.77;;;10.90;95.70;;;;;;5051325;28;20052;-75
2022/02/18 11:19:35;;;;;;;2.05;0.63;;;10.90;95.80;;;;;;5032934;28;20053;-75
2022/02/18 11:22:13;;;;;;;2.40;1.20;;;11.00;95.70;;;;;;5035103;28;20065;-76
2022/02/18 11:24:45;;;;;;;2.58;0.88;;;11.00;95.70;;;;;;5050721;28;20106;-76
2022/02/18 11:27:13;;;;;;;2.33;0.77;;;11.00;95.60;;;;;;5033274;28;20041;-76
2022/02/18 11:29:40;;;;;;;3.42;0.77;;;11.10;95.60;;;;;;5033065;28;20049;-75
2022/02/18 11:32:21;;;;;;;2.08;0.50;;;11.10;95.60;;;;;;5033207;28;20489;-75
2022/02/18 11:35:08;;;;;;;1.58;0.52;;;11.20;95.50;;;;;;5033263;28;20051;-76
2022/02/18 11:38:05;;;;;;;2.17;0.60;;;11.30;95.40;;;;;;5050756;28;20057;-75
2022/02/18 11:41:03;;;;;;;1.65;0.40;;;11.20;95.30;;;;;;5051223;28;20110;-76
2022/02/18 11:43:33;;;;;;;0.57;0.38;;;11.30;95.30;;;;;;5037168;28;20481;-76
2022/02/18 11:46:05;;;;;;;0.93;0.50;;;11.30;95.30;;;;;;5054804;28;20105;-76
2022/02/18 11:48:36;;;;;;;0.82;0.45;;;11.30;95.20;;;;;;5037045;28;20715;-75
2022/02/18 11:51:23;;;;;;;2.15;0.65;;;11.40;95.20;;;;;;5054511;28;20037;-76
2022/02/18 11:53:59;;;;;;;1.08;0.32;;;11.50;95.10;;;;;;5036846;28;20070;-76
2022/02/18 11:56:35;;;;;;;0.32;0.20;;;11.50;95.00;;;;;;5054567;28;20040;-76
2022/02/18 11:59:03;;;;;;;0.60;0.30;;;11.50;95.00;;;;;;5054906;28;20487;-76
2022/02/18 12:02:03;;;;;;;1.05;0.40;;;11.50;94.90;;;;;;5020770;28;20132;-76
2022/02/18 12:04:33;;;;;;;1.08;0.40;;;11.60;94.90;;;;;;5054612;28;20473;-77
2022/02/18 12:07:29;;;;;;;0.82;0.30;;;11.60;94.80;;;;;;5036909;28;20409;-77
2022/02/18 12:10:05;;;;;;;0.85;0.30;;;11.70;94.70;;;;;;5020365;28;20098;-76
2022/02/18 12:12:39;;;;;;;1.20;0.40;;;11.70;94.60;;;;;;5036763;28;20140;-76
2022/02/18 12:15:16;;;;;;;0.82;0.30;;;11.80;94.60;;;;;;5053255;28;20106;-76
2022/02/18 12:17:48;;;;;;;3.28;0.40;;;11.80;94.50;;;;;;5054700;28;20067;-77
2022/02/18 12:20:26;;;;;;;0.80;0.40;;;11.90;94.40;;;;;;5036303;28;20060;-76
2022/02/18 12:22:55;;;;;;;1.17;0.40;;;11.90;94.30;;;;;;5053287;28;20060;-76
2022/02/18 12:25:27;;;;;;;1.00;0.40;;;12.00;94.30;;;;;;5056201;28;20114;-76
2022/02/18 12:28:17;;;;;;;1.23;0.35;;;12.00;94.20;;;;;;5020617;28;20821;-84
2022/02/18 12:30:54;;;;;;;1.45;0.60;;;12.00;94.00;;;;;;5036953;28;20053;-84
2022/02/18 12:33:22;;;;;;;1.05;0.40;;;12.00;93.90;;;;;;5054878;28;20051;-83
2022/02/18 12:35:49;;;;;;;1.13;0.35;;;12.00;93.90;;;;;;5020481;28;20045;-84
2022/02/18 12:38:20;;;;;;;1.10;0.40;;;12.10;93.80;;;;;;5036666;28;20438;-84
2022/02/18 12:40:48;;;;;;;1.70;0.52;;;12.10;93.70;;;;;;5054582;28;20044;-83
2022/02/18 12:43:18;;;;;;;0.77;0.30;;;12.10;93.70;;;;;;5021433;28;20045;-84
2022/02/18 12:45:57;;;;;;;1.27;0.32;;;12.20;93.90;;;;;;5037175;28;20099;-84
2022/02/18 12:48:39;;;;;;;0.85;0.38;;;12.20;93.60;;;;;;5035964;28;20069;-84
2022/02/18 12:51:22;;;;;;;1.35;0.50;;;12.20;93.60;;;;;;5036349;28;20114;-82
2022/02/18 12:53:54;;;;;;;0.80;0.30;;;12.20;93.70;;;;;;5038407;28;20041;-82
2022/02/18 12:56:24;;;;;;;0.80;0.40;;;12.20;93.70;;;;;;5054089;28;20036;-83
2022/02/18 12:59:00;;;;;;;1.38;0.30;;;12.10;93.70;;;;;;5054563;28;20037;-82
2022/02/18 13:01:29;;;;;;;1.17;0.40;;;12.10;93.80;;;;;;5036710;28;20040;-81
2022/02/18 13:04:13;;;;;;;2.05;0.45;;;12.00;93.90;;;;;;5036748;28;20354;-85
2022/02/18 13:06:44;;;;;;;0.70;0.50;;;11.90;94.00;;;;;;5054515;28;20033;-81
2022/02/18 13:09:14;;;;;;;1.52;0.43;;;11.80;94.20;;;;;;5013362;28;20491;-83
2022/02/18 13:11:41;;;;;;;1.85;0.60;;;11.70;94.40;;;;;;5031382;28;20052;-81